Bismarck, North Dakota
Current Conditions -  °F | °C
As of 7:52 PM on Thursday 20 Nov 2014 (Local Time) from KBIS Reporting Station
Clear Clear  
Wind Chill:   Ceiling: Unl
Heat Index: 13°   Visibility: 10mi
Dew Point:   Wind: 10mph
Humidity: 84%   Direction: 120°ESE
Pressure: 29.98"   Gusts: NA
Location:  46.81°N, 100.77°W
Report Text: KBIS 210152Z 12009KT 10SM CLR M11/M13 A2998 RMK AO2 SLP185 T11061128
Loading
Personal Weather Stations






























Interactive Weather Map New forecast layout! Learn more

10-Day Weather Forecast

Advertisements
Track Severe Weather on mobile